BrazilFixed distance
105K Ultra Morretes-Guaraquecaba
9 Aug2014
Distance
105km
Finishers
2622 men4 women
Winning time
8:20:55h
Pace distribution
26 finishers · 6.83–12.58 km/h
6.83 km/hmedian 7.8212.58 km/h
Results
Ranks 1–26 of 26
| Rank | Runner | Time | Pace | Cat. | Placing |
|---|---|---|---|---|---|
| 1 | Território Mountain Te... | 8:20:55h | 12.58 | M35 | 1st M · 1st M35 |
| 2 | Ironlife/Carbocloro – ... | 9:03:09h | 11.60 | — | 2nd M |
| 3 | Equipiazza | 9:56:41h | 10.56 | M35 | 3rd M · 2nd M35 |
| 4 | Hp Sports | 9:57:23h | 10.55 | — | 4th M |
| 5 | Souza | 10:36:46h | 9.89 | M45 | 5th M · 1st M45 |
| 6 | Accorrer | 10:58:39h | 9.56 | M45 | 6th M · 2nd M45 |
| 7 | Diniz Treinamentos | 11:26:48h | 9.17 | M23 | 7th M · 1st M23 |
| 8 | Thyssenkrupp | 11:38:47h | 9.02 | M45 | 8th M · 3rd M45 |
| 9 | Araujo | 12:26:08h | 8.44 | M50 | 9th M · 1st M50 |
| 10 | Lorem | 12:35:33h | 8.34 | — | 10th M |
| 11 | Equipe Pe No Asfalto | 12:42:25h | 8.26 | — | 11th M |
| 12 | Papailégua Canela Quente | 13:06:37h | 8.01 | M50 | 12th M · 2nd M50 |
| 13 | Perfipar | 13:18:32h | 7.89 | W35 | 1st F · 1st W35 |
| 14 | Mega / GB Tri | 13:25:12h | 7.82 | M45 | 13th M · 4th M45 |
| 15 | Barros | 13:37:48h | 7.70 | W35 | 2nd F · 2nd W35 |
| 16 | Equipe Ecotrilha Morretes | 13:55:08h | 7.54 | — | 14th M |
| 17 | Rotam 23 Bpm | 14:01:15h | 7.49 | M23 | 15th M · 2nd M23 |
| 18 | Jacaré De Conga | 14:01:22h | 7.49 | M40 | 16th M · 1st M40 |
| 19 | Loucos Por Corridas | 14:11:34h | 7.40 | M50 | 17th M · 3rd M50 |
| 20 | Associação Medica De L... | 14:31:49h | 7.23 | M55 | 18th M · 1st M55 |
| 21 | Saude - Aml | 14:31:49h | 7.23 | W45 | 3rd F · 1st W45 |
| 22 | Corja | 14:42:04h | 7.14 | — | 19th M |
| 23 | Ufpr Veterinária | 14:42:05h | 7.14 | — | 20th M |
| 24 | Gallo | 15:14:49h | 6.89 | — | 4th F |
| 25 | Gbt Constr Obras Elétr... | 15:22:17h | 6.83 | M55 | 21st M · 2nd M55 |
| 26 | Tamo Junto Running | 15:22:20h | 6.83 | — | 22nd M |
- 1Território Mountain Te...1st M · 1st M35Time8:20:55hPace12.58Cat.M35
- 2Ironlife/Carbocloro – ...2nd MTime9:03:09hPace11.60
- 3Equipiazza3rd M · 2nd M35Time9:56:41hPace10.56Cat.M35
- 4Hp Sports4th MTime9:57:23hPace10.55
- 5Souza5th M · 1st M45Time10:36:46hPace9.89Cat.M45
- 6Accorrer6th M · 2nd M45Time10:58:39hPace9.56Cat.M45
- 7Diniz Treinamentos7th M · 1st M23Time11:26:48hPace9.17Cat.M23
- 8Thyssenkrupp8th M · 3rd M45Time11:38:47hPace9.02Cat.M45
- 9Araujo9th M · 1st M50Time12:26:08hPace8.44Cat.M50
- 10Lorem10th MTime12:35:33hPace8.34
- 11Equipe Pe No Asfalto11th MTime12:42:25hPace8.26
- 12Papailégua Canela Quente12th M · 2nd M50Time13:06:37hPace8.01Cat.M50
- 13Perfipar1st F · 1st W35Time13:18:32hPace7.89Cat.W35
- 14Mega / GB Tri13th M · 4th M45Time13:25:12hPace7.82Cat.M45
- 15Barros2nd F · 2nd W35Time13:37:48hPace7.70Cat.W35
- 16Equipe Ecotrilha Morretes14th MTime13:55:08hPace7.54
- 17Rotam 23 Bpm15th M · 2nd M23Time14:01:15hPace7.49Cat.M23
- 18Jacaré De Conga16th M · 1st M40Time14:01:22hPace7.49Cat.M40
- 19Loucos Por Corridas17th M · 3rd M50Time14:11:34hPace7.40Cat.M50
- 20Associação Medica De L...18th M · 1st M55Time14:31:49hPace7.23Cat.M55
- 21Saude - Aml3rd F · 1st W45Time14:31:49hPace7.23Cat.W45
- 22Corja19th MTime14:42:04hPace7.14
- 23Ufpr Veterinária20th MTime14:42:05hPace7.14
- 24Gallo4th FTime15:14:49hPace6.89
- 25Gbt Constr Obras Elétr...21st M · 2nd M55Time15:22:17hPace6.83Cat.M55
- 26Tamo Junto Running22nd MTime15:22:20hPace6.83